Time;durP1;ratioP1;P1;durP2;ratioP2;P2;SDS_P1;SDS_P2;PMS_P1;PMS_P2;Temp;Humidity;BMP_temperature;BMP_pressure;BME280_temperature;BME280_humidity;BME280_pressure;Samples;Min_cycle;Max_cycle;Signal;HPM_P1;HPM_P2
2021/12/27 00:00:16;;;;;;;16.55;9.57;;;0.30;99.90;;;;;;5111805;27;20055;-76
2021/12/27 00:02:43;;;;;;;15.35;8.88;;;-0.60;99.90;;;;;;5126121;27;20510;-76
2021/12/27 00:05:09;;;;;;;17.10;9.65;;;0.50;99.90;;;;;;5127363;27;20522;-76
2021/12/27 00:07:35;;;;;;;18.58;9.77;;;1.00;99.90;;;;;;5127334;27;20441;-76
2021/12/27 00:10:01;;;;;;;16.80;9.88;;;-0.60;99.90;;;;;;5126757;27;20039;-76
2021/12/27 00:12:27;;;;;;;17.58;9.63;;;0.50;99.90;;;;;;5113108;27;20038;-75
2021/12/27 00:14:53;;;;;;;15.80;9.88;;;-0.60;99.90;;;;;;5129000;27;20057;-76
2021/12/27 00:17:19;;;;;;;14.48;9.40;;;0.90;99.90;;;;;;5095338;27;20043;-76
2021/12/27 00:19:46;;;;;;;14.68;9.88;;;-0.60;99.90;;;;;;5109693;27;20464;-76
2021/12/27 00:22:12;;;;;;;14.85;10.00;;;-0.40;99.90;;;;;;5095421;27;20142;-76
2021/12/27 00:24:38;;;;;;;16.80;9.68;;;-0.60;99.90;;;;;;5112846;27;20130;-76
2021/12/27 00:27:04;;;;;;;17.40;10.38;;;1.00;99.90;;;;;;5099117;27;20102;-76
2021/12/27 00:29:30;;;;;;;14.65;9.38;;;-0.60;99.90;;;;;;5116680;27;20057;-76
2021/12/27 00:31:56;;;;;;;16.95;10.05;;;0.50;99.90;;;;;;5125044;27;20043;-76
2021/12/27 00:34:22;;;;;;;16.42;9.85;;;-0.60;99.90;;;;;;5114105;27;20447;-76
2021/12/27 00:36:47;;;;;;;19.02;10.27;;;-0.60;99.90;;;;;;5114714;27;20122;-76
2021/12/27 00:39:13;;;;;;;15.77;10.15;;;0.00;99.90;;;;;;5131475;27;20056;-76
2021/12/27 00:41:39;;;;;;;16.02;9.85;;;-0.50;99.90;;;;;;5116467;27;20046;-76
2021/12/27 00:44:04;;;;;;;15.52;10.15;;;-0.50;99.90;;;;;;5097997;27;20121;-76
2021/12/27 00:46:30;;;;;;;15.75;9.88;;;-0.50;99.90;;;;;;5099083;27;20091;-77
2021/12/27 00:48:56;;;;;;;15.45;9.05;;;-0.50;99.90;;;;;;5115594;27;20049;-76
2021/12/27 00:51:22;;;;;;;16.48;10.40;;;-0.50;99.90;;;;;;5113702;27;20057;-76
2021/12/27 00:53:47;;;;;;;16.33;9.63;;;-0.50;99.90;;;;;;5129673;27;20054;-76
2021/12/27 00:56:13;;;;;;;17.52;10.18;;;0.40;99.90;;;;;;5131821;27;20073;-76
2021/12/27 00:58:39;;;;;;;17.08;11.02;;;0.60;99.90;;;;;;5130416;27;20055;-76
2021/12/27 01:01:05;;;;;;;17.30;10.25;;;-0.40;99.90;;;;;;5133276;27;20042;-76
2021/12/27 01:03:30;;;;;;;17.65;10.68;;;-0.40;99.90;;;;;;5112413;27;20039;-77
2021/12/27 01:05:56;;;;;;;17.58;10.20;;;-0.60;99.90;;;;;;5114865;27;20050;-76
2021/12/27 01:08:22;;;;;;;14.38;9.60;;;-0.10;99.90;;;;;;5114895;27;20053;-76
2021/12/27 01:13:25;;;;;;;16.90;9.95;;;1.10;99.90;;;;;;5115109;27;20054;-76
2021/12/27 01:16:10;;;;;;;17.08;10.88;;;0.10;99.90;;;;;;5131517;27;20043;-76
2021/12/27 01:18:39;;;;;;;18.15;10.20;;;1.10;99.90;;;;;;5130348;27;20076;-77
2021/12/27 01:21:05;;;;;;;17.20;10.77;;;-0.30;99.90;;;;;;5150290;27;20043;-76
2021/12/27 01:23:31;;;;;;;15.07;9.95;;;-0.30;99.90;;;;;;5114315;27;20043;-76
2021/12/27 01:25:56;;;;;;;17.00;10.18;;;0.70;99.90;;;;;;5113806;27;20045;-76
2021/12/27 01:28:22;;;;;;;16.63;10.23;;;0.70;99.90;;;;;;5130373;27;20095;-75
2021/12/27 01:30:49;;;;;;;17.35;10.25;;;0.60;99.90;;;;;;5129897;27;20043;-76
2021/12/27 01:33:20;;;;;;;17.90;10.93;;;-0.20;99.90;;;;;;5115149;27;20047;-75
2021/12/27 01:35:47;;;;;;;17.58;10.30;;;0.20;99.90;;;;;;5132127;27;20070;-76
2021/12/27 01:38:13;;;;;;;16.65;10.80;;;-0.20;99.90;;;;;;5131521;27;20054;-77
2021/12/27 01:40:42;;;;;;;16.23;10.07;;;0.50;99.90;;;;;;5122411;27;20526;-77
2021/12/27 01:43:14;;;;;;;14.93;9.95;;;-0.10;99.90;;;;;;5110663;27;20157;-77
2021/12/27 01:45:42;;;;;;;17.45;9.95;;;-0.20;99.90;;;;;;5124755;27;20052;-77
2021/12/27 01:48:09;;;;;;;16.20;10.27;;;0.80;99.90;;;;;;5122727;27;20072;-77
2021/12/27 01:50:37;;;;;;;15.75;10.40;;;1.30;99.90;;;;;;5131712;27;20062;-77
2021/12/27 01:53:04;;;;;;;16.30;10.50;;;-0.10;99.90;;;;;;5114057;27;20054;-77
2021/12/27 01:55:30;;;;;;;17.23;10.55;;;-0.10;99.90;;;;;;5114658;27;20104;-76
2021/12/27 01:57:56;;;;;;;18.50;10.82;;;1.20;99.90;;;;;;5113570;27;20058;-76
2021/12/27 02:00:22;;;;;;;18.35;10.80;;;1.40;99.90;;;;;;5132159;27;20069;-76
2021/12/27 02:02:47;;;;;;;18.45;11.25;;;1.10;99.90;;;;;;5106328;27;20046;-76
2021/12/27 02:05:14;;;;;;;17.73;10.38;;;0.40;99.90;;;;;;5129361;27;20062;-76
2021/12/27 02:07:41;;;;;;;18.88;11.55;;;1.50;99.90;;;;;;5113332;27;20043;-77
2021/12/27 02:10:08;;;;;;;17.42;10.85;;;0.00;99.90;;;;;;5124213;27;20045;-76
2021/12/27 02:12:34;;;;;;;16.58;11.13;;;0.00;99.90;;;;;;5113658;27;20049;-77
2021/12/27 02:15:07;;;;;;;17.50;10.38;;;0.00;99.90;;;;;;5113593;27;20042;-77
2021/12/27 02:17:33;;;;;;;15.73;10.27;;;0.70;99.90;;;;;;5113293;27;20122;-77
2021/12/27 02:19:59;;;;;;;17.30;10.27;;;0.00;99.90;;;;;;5130487;27;20317;-76
2021/12/27 02:22:25;;;;;;;18.02;11.55;;;1.30;99.90;;;;;;5113313;27;20544;-76
2021/12/27 02:24:51;;;;;;;16.33;10.65;;;0.10;99.90;;;;;;5112395;27;20392;-76
2021/12/27 02:27:17;;;;;;;18.45;10.95;;;0.10;99.90;;;;;;5129335;27;20081;-77
2021/12/27 02:29:43;;;;;;;17.73;11.23;;;1.30;99.90;;;;;;5129558;27;20129;-77
2021/12/27 02:32:09;;;;;;;21.20;11.40;;;0.30;99.90;;;;;;5131371;27;20059;-76
2021/12/27 02:34:34;;;;;;;18.45;11.02;;;1.50;99.90;;;;;;5113904;27;20063;-76
2021/12/27 02:37:00;;;;;;;17.85;11.38;;;1.20;99.90;;;;;;5102878;27;20077;-77
2021/12/27 02:39:29;;;;;;;19.23;12.10;;;0.10;99.90;;;;;;5128796;27;20107;-76
2021/12/27 02:41:55;;;;;;;16.80;11.63;;;0.50;99.90;;;;;;5128437;27;20051;-77
2021/12/27 02:44:21;;;;;;;19.15;11.63;;;0.10;99.90;;;;;;5114252;27;20046;-77
2021/12/27 02:46:47;;;;;;;18.60;11.23;;;1.40;99.90;;;;;;5080860;27;20073;-77
2021/12/27 02:49:13;;;;;;;19.80;11.50;;;1.30;99.90;;;;;;5114074;27;20099;-77
2021/12/27 02:51:38;;;;;;;17.63;11.75;;;0.20;99.90;;;;;;5113402;27;20054;-76
2021/12/27 02:54:04;;;;;;;18.00;11.05;;;0.10;99.90;;;;;;5096662;27;20078;-77
2021/12/27 02:56:30;;;;;;;19.23;11.52;;;1.40;99.90;;;;;;5114084;27;20100;-76
2021/12/27 02:58:57;;;;;;;21.13;13.23;;;1.70;99.90;;;;;;5128456;27;20507;-76
2021/12/27 03:01:24;;;;;;;19.95;11.85;;;0.10;99.90;;;;;;5131316;27;20035;-77
2021/12/27 03:03:52;;;;;;;18.67;10.95;;;0.20;99.90;;;;;;5124166;27;20061;-77
2021/12/27 03:06:18;;;;;;;19.80;12.77;;;0.20;99.90;;;;;;5126710;27;20038;-76
2021/12/27 03:08:46;;;;;;;18.77;11.48;;;1.40;99.90;;;;;;5129188;27;20050;-77
2021/12/27 03:11:12;;;;;;;17.40;10.77;;;0.80;99.90;;;;;;5130722;27;20051;-76
2021/12/27 03:13:46;;;;;;;18.58;12.50;;;1.50;99.90;;;;;;5111417;27;20039;-76
2021/12/27 03:16:16;;;;;;;22.20;12.85;;;0.70;99.90;;;;;;5113798;27;20407;-76
2021/12/27 03:18:44;;;;;;;21.25;12.25;;;1.50;99.90;;;;;;5105898;27;20465;-76
2021/12/27 03:21:10;;;;;;;22.65;12.63;;;0.20;99.90;;;;;;5129031;27;20046;-75
2021/12/27 03:23:38;;;;;;;20.90;12.70;;;1.50;99.90;;;;;;5106645;27;20043;-76
2021/12/27 03:26:05;;;;;;;23.90;12.77;;;0.10;99.90;;;;;;5113312;27;20604;-76
2021/12/27 03:28:32;;;;;;;20.13;12.45;;;1.50;99.90;;;;;;5106449;27;20047;-76
2021/12/27 03:30:57;;;;;;;24.75;15.25;;;0.10;99.90;;;;;;5091906;27;20047;-75
2021/12/27 03:33:24;;;;;;;24.20;13.70;;;1.00;99.90;;;;;;5113746;27;20106;-75
2021/12/27 03:36:00;;;;;;;24.80;13.18;;;1.70;99.90;;;;;;5095401;27;20043;-75
2021/12/27 03:38:26;;;;;;;;;;;1.30;99.90;;;;;;5130011;27;20121;-75
2021/12/27 03:40:52;;;;;;;;;;;1.50;99.90;;;;;;5106480;27;19923;-75
2021/12/27 03:43:17;;;;;;;21.47;12.77;;;0.10;99.90;;;;;;5113031;27;20387;-76
2021/12/27 03:45:44;;;;;;;23.23;13.82;;;1.20;99.90;;;;;;5112444;27;20043;-75
2021/12/27 03:48:11;;;;;;;21.08;13.65;;;1.30;99.90;;;;;;5124998;27;20039;-75
2021/12/27 03:50:38;;;;;;;24.42;14.05;;;0.10;99.90;;;;;;5114566;27;20139;-75
2021/12/27 03:53:04;;;;;;;23.75;14.02;;;0.90;99.90;;;;;;5130470;27;20043;-75
2021/12/27 03:55:31;;;;;;;23.55;13.10;;;1.30;99.90;;;;;;5127861;27;20043;-76
2021/12/27 03:58:07;;;;;;;24.33;14.05;;;0.90;99.90;;;;;;5112525;27;20051;-76
2021/12/27 04:00:59;;;;;;;22.38;13.52;;;0.10;99.90;;;;;;5115498;27;20139;-76
2021/12/27 04:03:25;;;;;;;25.25;14.27;;;0.10;99.90;;;;;;5132353;27;20035;-75
2021/12/27 04:05:51;;;;;;;25.17;14.50;;;0.10;99.90;;;;;;5129432;27;20080;-75
2021/12/27 04:08:18;;;;;;;26.35;14.73;;;1.20;99.90;;;;;;5124886;27;20039;-76
2021/12/27 04:10:45;;;;;;;23.75;14.15;;;0.60;99.90;;;;;;5112466;27;20061;-75
2021/12/27 04:13:12;;;;;;;25.95;15.55;;;0.10;99.90;;;;;;5129656;27;20062;-76
2021/12/27 04:15:39;;;;;;;27.35;14.93;;;1.60;99.90;;;;;;5092331;27;20160;-75
2021/12/27 04:18:09;;;;;;;24.02;14.10;;;0.10;99.90;;;;;;5126457;27;20043;-76
2021/12/27 04:20:35;;;;;;;22.80;14.35;;;0.90;99.90;;;;;;5116735;27;20523;-76
2021/12/27 04:23:00;;;;;;;24.25;14.95;;;0.20;99.90;;;;;;5125761;27;20396;-75
2021/12/27 04:25:26;;;;;;;26.80;14.75;;;0.20;99.90;;;;;;5096355;27;20054;-75
2021/12/27 04:27:52;;;;;;;28.80;17.38;;;0.20;99.90;;;;;;5116642;27;20042;-76
2021/12/27 04:30:19;;;;;;;29.00;15.52;;;0.20;99.90;;;;;;5114721;27;20046;-75
2021/12/27 04:32:46;;;;;;;29.48;16.05;;;0.60;99.90;;;;;;5115101;27;20479;-76
2021/12/27 04:35:13;;;;;;;27.67;15.25;;;0.30;99.90;;;;;;5100227;27;20042;-75
2021/12/27 04:37:39;;;;;;;27.05;15.90;;;1.30;99.90;;;;;;5128763;27;20097;-75
2021/12/27 04:40:08;;;;;;;30.30;17.45;;;0.20;99.90;;;;;;5117734;27;20068;-76
2021/12/27 04:42:34;;;;;;;29.17;15.57;;;0.20;99.90;;;;;;5116079;27;20129;-76
2021/12/27 04:45:01;;;;;;;30.85;17.70;;;0.50;99.90;;;;;;5115409;27;20106;-76
2021/12/27 04:47:26;;;;;;;31.45;17.20;;;0.20;99.90;;;;;;5099589;27;20107;-76
2021/12/27 04:49:52;;;;;;;32.70;17.17;;;0.30;99.90;;;;;;5131582;27;20170;-77
2021/12/27 04:52:18;;;;;;;31.17;17.00;;;0.30;99.90;;;;;;5100798;27;20047;-76
2021/12/27 04:54:44;;;;;;;31.77;15.88;;;1.30;99.90;;;;;;5131209;27;20058;-75
2021/12/27 04:57:10;;;;;;;30.60;16.70;;;0.30;99.90;;;;;;5115395;27;20168;-76
2021/12/27 04:59:35;;;;;;;34.28;19.27;;;1.40;99.90;;;;;;5132064;27;20076;-75
2021/12/27 05:02:02;;;;;;;34.97;18.33;;;0.20;99.90;;;;;;5098412;27;20050;-75
2021/12/27 05:04:28;;;;;;;41.42;19.80;;;0.30;99.90;;;;;;5115042;27;20058;-75
2021/12/27 05:06:54;;;;;;;35.97;19.00;;;0.60;99.90;;;;;;5115116;27;20054;-76
2021/12/27 05:09:20;;;;;;;38.45;19.10;;;0.30;99.90;;;;;;5115921;27;20046;-75
2021/12/27 05:11:45;;;;;;;41.83;19.27;;;0.40;99.90;;;;;;5086581;27;20047;-75
2021/12/27 05:14:12;;;;;;;41.75;19.48;;;0.90;99.90;;;;;;5112955;27;20187;-75
2021/12/27 05:16:37;;;;;;;39.90;18.52;;;0.30;99.90;;;;;;5098535;27;20127;-76
2021/12/27 05:19:04;;;;;;;38.17;17.15;;;1.50;99.90;;;;;;5113576;27;20050;-76
2021/12/27 05:21:29;;;;;;;37.03;18.60;;;0.30;99.90;;;;;;5131069;27;20058;-76
2021/12/27 05:23:55;;;;;;;36.03;18.50;;;1.00;99.90;;;;;;5114196;27;20051;-76
2021/12/27 05:26:21;;;;;;;36.22;19.15;;;1.50;99.90;;;;;;5115175;27;20081;-76
2021/12/27 05:28:47;;;;;;;43.00;20.35;;;2.00;99.90;;;;;;5127486;27;20150;-76
2021/12/27 05:31:13;;;;;;;42.63;20.20;;;0.30;99.90;;;;;;5129587;27;20154;-76
2021/12/27 05:33:38;;;;;;;49.25;22.52;;;0.30;99.90;;;;;;5125691;27;20496;-76
2021/12/27 05:36:04;;;;;;;36.05;18.90;;;0.30;99.90;;;;;;5111228;27;20046;-76
2021/12/27 05:38:30;;;;;;;45.17;20.50;;;0.30;99.90;;;;;;5110377;27;20062;-77
2021/12/27 05:40:56;;;;;;;45.85;20.23;;;0.40;99.90;;;;;;5125712;27;20819;-77
2021/12/27 05:43:23;;;;;;;49.63;20.25;;;0.40;99.90;;;;;;5111945;27;20047;-77
2021/12/27 05:45:50;;;;;;;40.00;19.58;;;1.70;99.90;;;;;;5113486;27;20395;-77
2021/12/27 05:48:15;;;;;;;54.72;22.90;;;0.40;99.90;;;;;;5095864;27;20049;-77
2021/12/27 05:50:42;;;;;;;39.40;18.67;;;0.80;99.90;;;;;;5115239;27;20050;-77
2021/12/27 05:53:08;;;;;;;42.42;20.17;;;1.70;99.90;;;;;;5127428;27;20122;-77
2021/12/27 05:55:34;;;;;;;47.40;21.70;;;0.60;99.90;;;;;;5112434;27;20125;-77
2021/12/27 05:58:00;;;;;;;41.45;18.85;;;0.40;99.90;;;;;;5103278;27;20481;-77
2021/12/27 06:00:26;;;;;;;40.33;19.08;;;0.50;99.90;;;;;;5112652;27;20142;-77
2021/12/27 06:02:53;;;;;;;47.63;20.75;;;1.80;99.90;;;;;;5110950;27;20457;-77
2021/12/27 06:05:19;;;;;;;44.15;20.45;;;0.50;99.90;;;;;;5127988;27;20050;-77
2021/12/27 06:07:45;;;;;;;56.28;23.23;;;0.40;99.90;;;;;;5113877;27;20541;-77
2021/12/27 06:10:12;;;;;;;41.38;19.15;;;0.40;99.90;;;;;;5112296;27;20051;-77
2021/12/27 06:12:38;;;;;;;36.65;18.00;;;0.40;99.90;;;;;;5110090;27;20047;-77
2021/12/27 06:15:05;;;;;;;41.25;21.50;;;1.40;99.90;;;;;;5113540;27;20043;-77
2021/12/27 06:17:32;;;;;;;40.75;19.15;;;0.40;99.90;;;;;;5129414;27;20051;-77
2021/12/27 06:19:59;;;;;;;48.22;21.00;;;1.40;99.90;;;;;;5114332;27;20117;-77
2021/12/27 06:22:25;;;;;;;35.50;17.92;;;0.40;99.90;;;;;;5130410;27;20514;-77
2021/12/27 06:24:51;;;;;;;43.53;19.65;;;0.80;99.90;;;;;;5097696;27;20060;-77
2021/12/27 06:27:16;;;;;;;42.40;19.77;;;1.30;99.90;;;;;;5079677;27;20134;-77
2021/12/27 06:29:42;;;;;;;44.45;20.00;;;0.40;99.90;;;;;;5097312;27;20047;-76
2021/12/27 06:32:13;;;;;;;50.75;21.40;;;1.30;99.90;;;;;;5109548;27;20050;-76
2021/12/27 06:34:40;;;;;;;50.40;21.88;;;1.20;99.90;;;;;;5128511;27;20099;-77
2021/12/27 06:37:06;;;;;;;67.82;25.38;;;1.80;99.90;;;;;;5127819;27;20066;-77
2021/12/27 06:39:32;;;;;;;51.17;23.08;;;0.40;99.90;;;;;;5128048;27;20498;-78
2021/12/27 06:41:58;;;;;;;43.15;20.15;;;0.40;99.90;;;;;;5127292;27;20045;-78
2021/12/27 06:44:24;;;;;;;55.60;22.33;;;0.40;99.90;;;;;;5129019;27;20074;-78
2021/12/27 06:46:50;;;;;;;54.40;22.67;;;0.40;99.90;;;;;;5097647;27;20471;-77
2021/12/27 06:49:15;;;;;;;47.60;21.20;;;0.40;99.90;;;;;;5128106;27;20047;-77
2021/12/27 06:51:41;;;;;;;50.53;20.98;;;0.40;99.90;;;;;;5111568;27;20571;-77
2021/12/27 06:54:07;;;;;;;64.10;23.80;;;1.40;99.90;;;;;;5128243;27;20047;-77
2021/12/27 06:56:33;;;;;;;55.88;20.50;;;0.40;99.90;;;;;;5108119;27;20121;-77
2021/12/27 06:59:01;;;;;;;52.88;20.67;;;0.50;99.90;;;;;;5128022;27;20061;-77
2021/12/27 07:01:27;;;;;;;50.20;20.27;;;1.30;99.90;;;;;;5096694;27;20488;-77
2021/12/27 07:03:52;;;;;;;71.53;24.13;;;1.50;99.90;;;;;;5111679;27;20042;-77
2021/12/27 07:06:18;;;;;;;56.38;21.83;;;2.10;99.90;;;;;;5110317;27;20078;-77
2021/12/27 07:08:47;;;;;;;61.40;21.45;;;0.50;99.90;;;;;;5090097;27;20053;-78
2021/12/27 07:11:13;;;;;;;49.85;20.75;;;1.80;99.90;;;;;;5128788;27;20051;-77
2021/12/27 07:13:39;;;;;;;70.47;24.38;;;1.00;99.90;;;;;;5111864;27;20057;-77
2021/12/27 07:16:05;;;;;;;50.40;21.50;;;1.10;99.90;;;;;;5128373;27;20035;-77
2021/12/27 07:18:31;;;;;;;55.60;20.17;;;0.50;99.90;;;;;;5121585;27;20070;-78
2021/12/27 07:20:57;;;;;;;54.47;21.48;;;0.00;99.90;;;;;;5127477;27;20407;-76
2021/12/27 07:23:23;;;;;;;55.85;21.05;;;0.70;99.90;;;;;;5142768;27;20047;-77
2021/12/27 07:25:49;;;;;;;46.35;20.27;;;0.50;99.90;;;;;;5110924;27;20489;-77
2021/12/27 07:28:15;;;;;;;66.35;24.55;;;0.50;99.90;;;;;;5129029;27;20050;-76
2021/12/27 07:30:42;;;;;;;59.13;22.50;;;1.80;99.90;;;;;;5114040;27;20406;-76
2021/12/27 07:33:08;;;;;;;51.83;21.00;;;0.50;99.90;;;;;;5126221;27;20043;-77
2021/12/27 07:35:34;;;;;;;61.83;21.58;;;1.80;99.90;;;;;;5115360;27;20514;-76
2021/12/27 07:38:01;;;;;;;57.28;21.45;;;0.50;99.90;;;;;;5116221;27;20039;-77
2021/12/27 07:40:28;;;;;;;70.57;23.65;;;0.50;99.90;;;;;;5147538;27;20083;-77
2021/12/27 07:42:53;;;;;;;61.42;24.17;;;1.40;99.90;;;;;;5099758;27;20055;-77
2021/12/27 07:45:19;;;;;;;59.85;22.33;;;1.90;99.90;;;;;;5134372;27;20066;-77
2021/12/27 07:47:45;;;;;;;68.10;23.00;;;1.20;99.90;;;;;;5134363;27;20053;-77
2021/12/27 07:50:11;;;;;;;72.28;23.23;;;0.50;99.90;;;;;;5133376;27;20050;-77
2021/12/27 07:52:36;;;;;;;70.63;24.92;;;1.10;99.90;;;;;;5115900;27;20108;-77
2021/12/27 07:55:03;;;;;;;57.42;21.80;;;0.50;99.90;;;;;;5112711;27;20510;-77
2021/12/27 07:57:29;;;;;;;66.05;22.50;;;0.60;99.90;;;;;;5111550;27;20483;-76
2021/12/27 07:59:55;;;;;;;60.40;24.05;;;0.60;99.90;;;;;;5129097;27;20061;-76
2021/12/27 08:02:20;;;;;;;46.00;19.88;;;0.60;99.90;;;;;;5097437;27;20078;-77
2021/12/27 08:04:46;;;;;;;50.67;22.75;;;0.60;99.90;;;;;;5112656;27;20122;-77
2021/12/27 08:07:12;;;;;;;60.90;22.30;;;0.50;99.90;;;;;;5126926;27;20136;-77
2021/12/27 08:09:38;;;;;;;60.50;22.73;;;1.00;99.90;;;;;;5113439;27;20054;-76
2021/12/27 08:12:06;;;;;;;82.20;24.55;;;0.60;99.90;;;;;;5112694;27;20382;-78
2021/12/27 08:14:31;;;;;;;47.75;21.48;;;0.60;99.90;;;;;;5125780;27;20051;-77
2021/12/27 08:16:57;;;;;;;49.58;20.65;;;0.60;99.90;;;;;;5126427;27;20472;-79
2021/12/27 08:19:23;;;;;;;62.88;22.92;;;1.40;99.90;;;;;;5126745;27;20045;-79
2021/12/27 08:21:49;;;;;;;60.15;21.70;;;1.40;99.90;;;;;;5097163;27;20050;-77
2021/12/27 08:24:14;;;;;;;62.03;22.80;;;0.60;99.90;;;;;;5127680;27;20056;-77
2021/12/27 08:26:41;;;;;;;54.63;21.15;;;1.40;99.90;;;;;;5128478;27;20046;-80
2021/12/27 08:29:10;;;;;;;73.28;23.65;;;0.70;99.90;;;;;;5123345;27;20046;-77
2021/12/27 08:31:38;;;;;;;56.30;23.38;;;1.70;99.90;;;;;;5145674;27;20042;-79
2021/12/27 08:34:04;;;;;;;74.07;23.25;;;0.80;99.90;;;;;;5131156;27;20045;-76
2021/12/27 08:36:29;;;;;;;67.53;23.08;;;0.70;99.90;;;;;;5097285;27;20106;-76
2021/12/27 08:38:55;;;;;;;75.25;26.63;;;1.00;99.90;;;;;;5113306;27;20111;-76
2021/12/27 08:41:27;;;;;;;70.43;24.80;;;0.80;99.90;;;;;;5133099;27;20043;-76
2021/12/27 08:44:03;;;;;;;61.60;21.20;;;0.80;99.90;;;;;;5115918;27;20054;-76
2021/12/27 08:46:30;;;;;;;85.13;25.45;;;0.80;99.90;;;;;;5129447;27;20058;-76
2021/12/27 08:48:55;;;;;;;73.78;22.38;;;0.80;99.90;;;;;;5126638;27;20047;-76
2021/12/27 08:51:21;;;;;;;65.53;22.58;;;0.80;99.90;;;;;;5097204;27;20100;-77
2021/12/27 08:53:47;;;;;;;89.25;25.17;;;0.80;99.90;;;;;;5111362;27;20077;-76
2021/12/27 08:56:12;;;;;;;82.40;23.38;;;0.90;99.90;;;;;;5104838;27;20031;-77
2021/12/27 08:58:38;;;;;;;68.30;22.23;;;1.40;99.90;;;;;;5110110;27;20141;-76
2021/12/27 09:01:06;;;;;;;83.75;22.88;;;0.90;99.90;;;;;;5113291;27;20137;-76
2021/12/27 09:03:32;;;;;;;88.40;24.95;;;0.90;99.90;;;;;;5113651;27;20487;-76
2021/12/27 09:05:58;;;;;;;77.68;23.75;;;1.80;99.90;;;;;;5132110;27;20421;-76
2021/12/27 09:08:24;;;;;;;101.20;24.88;;;1.00;99.90;;;;;;5115464;27;20060;-76
2021/12/27 09:10:49;;;;;;;79.25;23.35;;;1.00;99.90;;;;;;5116105;27;20873;-76
2021/12/27 09:13:15;;;;;;;76.35;24.55;;;2.10;99.90;;;;;;5116318;27;20107;-76
2021/12/27 09:15:41;;;;;;;101.88;26.83;;;1.50;99.90;;;;;;5115553;27;20047;-76
2021/12/27 09:18:06;;;;;;;83.30;23.92;;;1.60;99.90;;;;;;5098930;27;20057;-76
2021/12/27 09:20:32;;;;;;;80.93;23.42;;;2.70;99.90;;;;;;5088271;27;20458;-76
2021/12/27 09:22:58;;;;;;;80.93;25.30;;;1.00;99.90;;;;;;5102996;27;20055;-76
2021/12/27 09:25:24;;;;;;;121.43;29.15;;;1.10;99.90;;;;;;5114707;27;20042;-76
2021/12/27 09:27:50;;;;;;;61.70;23.05;;;1.10;99.90;;;;;;5116016;27;20096;-76
2021/12/27 09:30:17;;;;;;;64.30;23.17;;;2.00;99.90;;;;;;5114458;27;20050;-77
2021/12/27 09:32:42;;;;;;;59.40;21.15;;;1.80;99.90;;;;;;5131403;27;20125;-76
2021/12/27 09:35:08;;;;;;;90.47;25.45;;;1.10;99.90;;;;;;5116256;27;20126;-76
2021/12/27 09:37:34;;;;;;;98.57;26.25;;;1.20;99.90;;;;;;5098332;27;20051;-76
2021/12/27 09:40:00;;;;;;;86.22;25.48;;;1.20;99.90;;;;;;5114022;27;20050;-76
2021/12/27 09:42:28;;;;;;;77.68;23.42;;;1.20;99.90;;;;;;5115897;27;20510;-76
2021/12/27 09:44:56;;;;;;;105.82;26.83;;;2.10;99.90;;;;;;5114410;27;20488;-76
2021/12/27 09:47:21;;;;;;;71.32;22.27;;;2.00;99.90;;;;;;5115157;27;20519;-76
2021/12/27 09:49:49;;;;;;;74.85;23.58;;;2.30;99.90;;;;;;5115877;27;20064;-76
2021/12/27 09:52:15;;;;;;;88.32;24.60;;;1.30;99.90;;;;;;5124841;27;20407;-77
2021/12/27 09:54:45;;;;;;;87.03;24.83;;;1.30;99.90;;;;;;5131207;27;20125;-77
2021/12/27 09:57:11;;;;;;;105.60;28.15;;;1.30;99.90;;;;;;5131606;27;20054;-77
2021/12/27 09:59:36;;;;;;;84.07;23.80;;;1.30;99.90;;;;;;5130273;27;20063;-75
2021/12/27 10:02:02;;;;;;;76.45;21.98;;;1.30;99.90;;;;;;5129849;27;20142;-78
2021/12/27 10:04:28;;;;;;;101.40;26.15;;;1.40;99.90;;;;;;5104233;27;20549;-76
2021/12/27 10:06:55;;;;;;;86.18;24.50;;;0.40;99.90;;;;;;5111455;27;20129;-76
2021/12/27 10:09:21;;;;;;;65.57;22.77;;;2.50;99.90;;;;;;5112208;27;20047;-77
2021/12/27 10:11:47;;;;;;;74.55;24.48;;;1.50;99.90;;;;;;5108887;27;20407;-76
2021/12/27 10:14:20;;;;;;;109.03;27.10;;;1.60;99.90;;;;;;5130003;27;20125;-77
2021/12/27 10:17:04;;;;;;;88.60;26.25;;;1.60;99.90;;;;;;5110747;27;20126;-76
2021/12/27 10:19:33;;;;;;;72.28;24.40;;;1.70;99.90;;;;;;5121391;27;20042;-76
2021/12/27 10:21:58;;;;;;;100.82;26.50;;;1.70;99.90;;;;;;5110699;27;20043;-77
2021/12/27 10:24:28;;;;;;;90.65;25.20;;;1.70;99.90;;;;;;5109277;27;20058;-76
2021/12/27 10:27:02;;;;;;;69.47;23.75;;;2.80;99.90;;;;;;5127168;27;20127;-77
2021/12/27 10:29:33;;;;;;;131.13;31.10;;;1.80;99.90;;;;;;5126645;27;20050;-76
2021/12/27 10:32:07;;;;;;;89.90;25.23;;;1.90;99.90;;;;;;5123274;27;20058;-76
2021/12/27 10:34:40;;;;;;;87.78;26.52;;;1.90;99.90;;;;;;5126952;27;20049;-77
2021/12/27 10:37:11;;;;;;;132.65;29.52;;;1.90;99.90;;;;;;5123513;27;20107;-76
2021/12/27 10:39:58;;;;;;;70.90;23.83;;;1.90;99.90;;;;;;5123471;27;20483;-76
2021/12/27 10:42:38;;;;;;;117.45;26.85;;;2.00;99.90;;;;;;5105694;27;20491;-78
2021/12/27 10:45:18;;;;;;;97.05;25.38;;;2.00;99.90;;;;;;5110696;27;20368;-76
2021/12/27 10:47:48;;;;;;;79.13;24.27;;;2.00;99.90;;;;;;5124642;27;20042;-76
2021/12/27 10:50:18;;;;;;;91.55;25.50;;;2.10;99.90;;;;;;5126254;27;20036;-76
2021/12/27 10:52:54;;;;;;;84.03;24.88;;;2.10;99.90;;;;;;5080704;27;20514;-76
2021/12/27 10:55:31;;;;;;;70.65;24.27;;;2.10;99.90;;;;;;5074666;28;20043;-77
2021/12/27 10:58:20;;;;;;;58.70;22.25;;;3.20;99.90;;;;;;5069040;28;20047;-77
2021/12/27 11:00:50;;;;;;;84.38;24.50;;;2.20;99.90;;;;;;5068343;28;20064;-76
2021/12/27 11:03:28;;;;;;;68.15;22.48;;;2.20;99.90;;;;;;5062899;28;20044;-77
2021/12/27 11:05:55;;;;;;;69.32;22.83;;;2.20;99.90;;;;;;5084466;28;20051;-76
2021/12/27 11:08:21;;;;;;;77.20;23.45;;;2.20;99.90;;;;;;5065761;28;20526;-77
2021/12/27 11:10:47;;;;;;;72.88;23.38;;;2.80;99.90;;;;;;5052739;28;20050;-77
2021/12/27 11:13:13;;;;;;;64.15;22.85;;;2.30;99.90;;;;;;5067366;28;20134;-77
2021/12/27 11:15:40;;;;;;;82.72;25.60;;;2.30;99.90;;;;;;5064786;28;20036;-76
2021/12/27 11:18:06;;;;;;;61.60;22.90;;;3.00;99.90;;;;;;5068198;28;20050;-77
2021/12/27 11:20:33;;;;;;;71.13;22.42;;;3.30;99.90;;;;;;5081782;28;20135;-77
2021/12/27 11:23:01;;;;;;;66.97;22.50;;;2.30;99.90;;;;;;5077056;28;20078;-77
2021/12/27 11:25:32;;;;;;;50.63;21.10;;;2.40;99.90;;;;;;5027843;28;20570;-77
2021/12/27 11:27:59;;;;;;;77.85;22.67;;;2.40;99.90;;;;;;5065796;28;20048;-77
2021/12/27 11:30:28;;;;;;;53.78;20.65;;;2.50;99.90;;;;;;5068132;28;20388;-77
2021/12/27 11:33:12;;;;;;;56.88;21.25;;;2.50;99.90;;;;;;5065981;28;20051;-77
2021/12/27 11:35:57;;;;;;;63.08;21.55;;;2.50;99.90;;;;;;5066300;28;20040;-76
2021/12/27 11:38:38;;;;;;;62.05;21.55;;;2.90;99.90;;;;;;5064968;28;20056;-77
2021/12/27 11:41:06;;;;;;;64.75;22.38;;;2.60;99.90;;;;;;5062425;28;20400;-77
2021/12/27 11:43:55;;;;;;;69.40;21.85;;;2.60;99.90;;;;;;5050942;28;20060;-77
2021/12/27 11:46:26;;;;;;;66.72;21.75;;;2.60;99.90;;;;;;5050657;28;20055;-77
2021/12/27 11:48:54;;;;;;;82.90;22.52;;;2.60;99.90;;;;;;5050178;28;20050;-77
2021/12/27 11:51:32;;;;;;;50.47;21.17;;;2.60;99.90;;;;;;5066062;28;20113;-77
2021/12/27 11:53:59;;;;;;;58.78;22.73;;;2.60;99.90;;;;;;5048983;28;20048;-82
2021/12/27 11:56:37;;;;;;;63.92;21.30;;;2.70;99.90;;;;;;5047348;28;20075;-81
2021/12/27 11:59:25;;;;;;;79.10;23.05;;;2.70;99.90;;;;;;5042491;28;20063;-81
2021/12/27 12:01:56;;;;;;;72.22;21.30;;;3.40;99.90;;;;;;5060802;28;20497;-81
2021/12/27 12:04:49;;;;;;;76.78;24.10;;;3.00;99.90;;;;;;5048320;28;20091;-81
2021/12/27 12:07:34;;;;;;;88.05;24.95;;;2.80;99.90;;;;;;5045278;28;20074;-81
2021/12/27 12:10:12;;;;;;;67.65;23.02;;;3.40;99.90;;;;;;5050154;28;20165;-82
2021/12/27 12:12:38;;;;;;;64.57;21.23;;;2.80;99.90;;;;;;5064999;28;20501;-82
2021/12/27 12:15:06;;;;;;;97.60;24.13;;;3.10;99.90;;;;;;5029084;28;20085;-81
2021/12/27 12:17:37;;;;;;;49.20;19.10;;;2.90;99.90;;;;;;5063728;28;21918;-82
2021/12/27 12:20:04;;;;;;;81.13;23.73;;;2.90;99.90;;;;;;5064952;28;20089;-81
2021/12/27 12:22:42;;;;;;;52.17;19.92;;;2.90;99.90;;;;;;5051005;28;20078;-81
2021/12/27 12:25:12;;;;;;;83.80;22.08;;;3.50;99.90;;;;;;5037501;28;20040;-81
2021/12/27 12:27:53;;;;;;;77.70;21.50;;;4.10;99.90;;;;;;5067851;28;20078;-81
2021/12/27 12:30:19;;;;;;;68.40;21.50;;;;;;;;;;5052302;28;20071;-81
2021/12/27 12:33:10;;;;;;;75.60;21.35;;;2.90;99.90;;;;;;5068339;28;20052;-81
2021/12/27 12:35:56;;;;;;;113.72;26.23;;;2.90;99.90;;;;;;5068227;28;20047;-82
2021/12/27 12:38:23;;;;;;;99.22;24.25;;;3.00;99.90;;;;;;5068268;28;20067;-81
2021/12/27 12:41:06;;;;;;;93.07;24.10;;;2.90;99.90;;;;;;5050313;28;20051;-82
2021/12/27 12:43:59;;;;;;;83.68;21.67;;;3.00;99.90;;;;;;5052106;28;20158;-81